Time;durP1;ratioP1;P1;durP2;ratioP2;P2;SDS_P1;SDS_P2;PMS_P1;PMS_P2;Temp;Humidity;BMP_temperature;BMP_pressure;BME280_temperature;BME280_humidity;BME280_pressure;Samples;Min_cycle;Max_cycle;Signal;HPM_P1;HPM_P2
2019/06/14 00:01:34;;;;;;;7.4;4.9;;;;;;;17.18;72.54102;961.1417;;;;
2019/06/14 00:04:00;;;;;;;6.5;4.7;;;;;;;17.1;72.3291;961.0925;;;;
2019/06/14 00:06:25;;;;;;;7.4;5;;;;;;;17.09;72.87793;961.1609;;;;
2019/06/14 00:08:50;;;;;;;7.2;5.2;;;;;;;17.11;72.55273;961.1656;;;;
2019/06/14 00:11:15;;;;;;;6.9;5.1;;;;;;;17.1;72.58594;961.2045;;;;
2019/06/14 00:13:40;;;;;;;8.5;5.3;;;;;;;17.11;72.64551;961.2827;;;;
2019/06/14 00:16:05;;;;;;;7.5;4.9;;;;;;;17.02;72.8291;961.2921;;;;
2019/06/14 00:18:30;;;;;;;7.3;5;;;;;;;17.05;72.96289;961.3614;;;;
2019/06/14 00:20:55;;;;;;;7.9;5.1;;;;;;;16.98;72.91699;961.3226;;;;
2019/06/14 00:23:22;;;;;;;6.2;4.6;;;;;;;16.97;72.88086;961.3367;;;;
2019/06/14 00:25:47;;;;;;;6.9;4.6;;;;;;;16.96;72.33008;961.3401;;;;
2019/06/14 00:28:12;;;;;;;7.9;4.9;;;;;;;16.97;73.42969;961.3153;;;;
2019/06/14 00:30:38;;;;;;;6.3;4.4;;;;;;;16.96;73.31152;961.3246;;;;
2019/06/14 00:33:03;;;;;;;5.5;4.6;;;;;;;16.91;72.79883;961.3148;;;;
2019/06/14 00:35:28;;;;;;;5.9;4.7;;;;;;;16.84;73.16211;961.2533;;;;
2019/06/14 00:37:53;;;;;;;7;4.9;;;;;;;16.83;73.3125;961.212;;;;
2019/06/14 00:40:18;;;;;;;7.4;4.9;;;;;;;16.86;72.12598;961.2547;;;;
2019/06/14 00:42:43;;;;;;;7.8;4.9;;;;;;;16.84;72.25098;961.2597;;;;
2019/06/14 00:45:10;;;;;;;6.9;4.8;;;;;;;16.81;72.58398;961.2383;;;;
2019/06/14 00:47:35;;;;;;;7.4;4.9;;;;;;;16.76;72.07422;961.2625;;;;
2019/06/14 00:50:00;;;;;;;6.5;4.9;;;;;;;16.78;72.41699;961.2494;;;;
2019/06/14 00:52:26;;;;;;;5.4;4.4;;;;;;;16.77;72.35645;961.264;;;;
2019/06/14 00:54:51;;;;;;;7.8;5.1;;;;;;;16.81;72.09473;961.2441;;;;
2019/06/14 00:57:16;;;;;;;7.3;5;;;;;;;16.86;72.4541;961.2168;;;;
2019/06/14 00:59:41;;;;;;;6.4;4.5;;;;;;;16.76;72.24902;961.2073;;;;
2019/06/14 01:02:08;;;;;;;6.8;4.7;;;;;;;16.81;72.25879;961.2152;;;;
2019/06/14 01:04:33;;;;;;;8;4.9;;;;;;;16.78;72.60449;961.2477;;;;
2019/06/14 01:06:59;;;;;;;6.6;4.9;;;;;;;16.73;73.3291;961.2557;;;;
2019/06/14 01:09:26;;;;;;;7.5;5.1;;;;;;;16.64;73.36035;961.1637;;;;
2019/06/14 01:11:54;;;;;;;7;5;;;;;;;16.58;73.62012;961.1721;;;;
2019/06/14 01:14:19;;;;;;;6.7;4.8;;;;;;;16.58;73.45703;961.1647;;;;
2019/06/14 01:16:45;;;;;;;7.2;5.1;;;;;;;16.53;74.60254;961.1209;;;;
2019/06/14 01:19:10;;;;;;;6.6;5.2;;;;;;;16.47;73.88184;961.0774;;;;
2019/06/14 01:21:38;;;;;;;7;5.3;;;;;;;16.44;74.21484;961.0701;;;;
2019/06/14 01:24:03;;;;;;;6.7;5;;;;;;;16.4;74.7334;961.1205;;;;
2019/06/14 01:26:28;;;;;;;6.9;4.9;;;;;;;16.32;74.99902;961.1368;;;;
2019/06/14 01:28:53;;;;;;;7.2;4.7;;;;;;;16.26;76.2832;961.0884;;;;
2019/06/14 01:31:18;;;;;;;7.1;5.1;;;;;;;16.19;76.38672;961.1025;;;;
2019/06/14 01:33:45;;;;;;;5.2;4.7;;;;;;;16.23;75.68359;961.0193;;;;
2019/06/14 01:36:10;;;;;;;5.9;5.1;;;;;;;16.21;75.69238;961.0201;;;;
2019/06/14 01:38:37;;;;;;;6.8;5;;;;;;;16.22;76.47363;961.0722;;;;
2019/06/14 01:41:02;;;;;;;6.7;5;;;;;;;16.25;76.03516;961.0754;;;;
2019/06/14 01:43:28;;;;;;;8.9;5.4;;;;;;;16.17;76.89844;961.0934;;;;
2019/06/14 01:45:53;;;;;;;6.1;5.1;;;;;;;16.14;76.47266;961.1839;;;;
2019/06/14 01:48:18;;;;;;;6.2;5;;;;;;;16.12;76.25977;961.1462;;;;
2019/06/14 01:50:45;;;;;;;7.6;5.3;;;;;;;16.12;75.86133;961.2034;;;;
2019/06/14 01:53:12;;;;;;;7;5.2;;;;;;;16.1;76.10449;961.2028;;;;
2019/06/14 01:55:38;;;;;;;7.5;5.2;;;;;;;16.12;76.91113;961.2537;;;;
2019/06/14 01:58:04;;;;;;;7.3;4.9;;;;;;;16.03;76.40723;961.1796;;;;
2019/06/14 02:00:29;;;;;;;8.3;5.4;;;;;;;16.03;75.92773;961.1575;;;;
2019/06/14 02:02:56;;;;;;;6.7;5.1;;;;;;;16.03;76.40723;961.1453;;;;
2019/06/14 02:05:21;;;;;;;5.6;4.6;;;;;;;16.01;76.09961;961.1321;;;;
2019/06/14 02:07:47;;;;;;;6.2;4.7;;;;;;;15.97;76.5127;961.0489;;;;
2019/06/14 02:10:12;;;;;;;5.2;4.7;;;;;;;15.89;77.41797;961.0549;;;;
2019/06/14 02:12:39;;;;;;;7.1;5;;;;;;;15.8;76.87891;960.9833;;;;
2019/06/14 02:15:04;;;;;;;6.1;5.1;;;;;;;15.78;77.22559;960.8878;;;;
2019/06/14 02:17:29;;;;;;;7.1;5.1;;;;;;;15.81;76.9502;961.0037;;;;
2019/06/14 02:19:55;;;;;;;6.3;5;;;;;;;15.8;77.18164;961.0481;;;;
2019/06/14 02:22:21;;;;;;;6.7;5.2;;;;;;;15.82;76.49805;961.1063;;;;
2019/06/14 02:24:46;;;;;;;6.1;5;;;;;;;15.82;76.69629;961.1573;;;;
2019/06/14 02:27:11;;;;;;;9.1;5.5;;;;;;;15.77;77.86426;961.1401;;;;
2019/06/14 02:29:40;;;;;;;7.4;5.3;;;;;;;15.72;76.72559;961.0857;;;;
2019/06/14 02:32:04;;;;;;;6.3;5.3;;;;;;;15.84;76.92188;961.0209;;;;
2019/06/14 02:34:30;;;;;;;6.4;5.4;;;;;;;15.77;77.30566;961.0358;;;;
2019/06/14 02:36:55;;;;;;;7.7;5.4;;;;;;;15.66;77.82227;961.0435;;;;
2019/06/14 02:39:22;;;;;;;7.2;5.5;;;;;;;15.62;77.70898;961.022;;;;
2019/06/14 02:42:07;;;;;;;8.4;5.9;;;;;;;15.64;77.52637;961.0302;;;;
2019/06/14 02:44:12;;;;;;;7.8;5.5;;;;;;;15.64;77.81738;961.0351;;;;
2019/06/14 02:46:38;;;;;;;6.4;5;;;;;;;15.62;77.39453;961.0451;;;;
2019/06/14 02:49:06;;;;;;;6.8;5.3;;;;;;;15.6;77.60156;961.0375;;;;
2019/06/14 02:51:31;;;;;;;8.7;5.8;;;;;;;15.57;78.23535;961.0556;;;;
2019/06/14 02:53:57;;;;;;;8;5.4;;;;;;;15.58;77.21191;961.0999;;;;
2019/06/14 02:56:22;;;;;;;8.1;5.6;;;;;;;15.56;77.39746;961.077;;;;
2019/06/14 02:58:49;;;;;;;8.1;5.9;;;;;;;15.52;78.15723;960.9551;;;;
2019/06/14 03:01:14;;;;;;;7.4;5.9;;;;;;;15.46;78.2627;960.9871;;;;
2019/06/14 03:03:42;;;;;;;6.6;5.5;;;;;;;15.42;78.28906;961.098;;;;
2019/06/14 03:06:07;;;;;;;8.3;5.4;;;;;;;15.49;77.75684;961.245;;;;
2019/06/14 03:08:33;;;;;;;8.7;5.7;;;;;;;15.41;77.6377;961.2377;;;;
2019/06/14 03:10:58;;;;;;;7.1;5.4;;;;;;;15.47;77.8916;961.1819;;;;
2019/06/14 03:13:24;;;;;;;7;5.7;;;;;;;15.44;77.99023;961.1433;;;;
2019/06/14 03:15:49;;;;;;;7.6;5.6;;;;;;;15.44;77.79199;961.1458;;;;
2019/06/14 03:18:14;;;;;;;6.2;5.6;;;;;;;15.49;77.42969;961.0709;;;;
2019/06/14 03:20:39;;;;;;;6.2;5.2;;;;;;;15.43;77.81543;961.0577;;;;
2019/06/14 03:23:04;;;;;;;6.6;5;;;;;;;15.44;77.17676;961.0709;;;;
2019/06/14 03:25:29;;;;;;;5.7;5;;;;;;;15.45;76.64355;961.1259;;;;
2019/06/14 03:27:54;;;;;;;6.9;5.6;;;;;;;15.38;76.47754;961.1445;;;;
2019/06/14 03:30:22;;;;;;;7.3;5.5;;;;;;;15.39;77.40137;961.2161;;;;
2019/06/14 03:32:48;;;;;;;6.3;5.6;;;;;;;15.32;76.95898;961.2472;;;;
2019/06/14 03:35:14;;;;;;;5.9;5.2;;;;;;;15.37;76.52539;961.2078;;;;
2019/06/14 03:37:39;;;;;;;6.2;5.5;;;;;;;15.44;76.6748;961.2361;;;;
2019/06/14 03:40:06;;;;;;;7.7;5.5;;;;;;;15.4;76.69336;961.2771;;;;
2019/06/14 03:42:31;;;;;;;8.9;5.6;;;;;;;15.39;77.42383;961.3467;;;;
2019/06/14 03:44:56;;;;;;;7;5.9;;;;;;;15.37;76.94141;961.2841;;;;
2019/06/14 03:47:21;;;;;;;7.6;5.6;;;;;;;15.34;77.68164;961.2438;;;;
2019/06/14 03:49:48;;;;;;;7.9;5.9;;;;;;;15.33;77.99414;961.2406;;;;
2019/06/14 03:52:14;;;;;;;6.5;5.4;;;;;;;15.35;77.52051;961.2975;;;;
2019/06/14 03:54:39;;;;;;;7.3;5.3;;;;;;;15.37;76.91992;961.188;;;;
2019/06/14 03:57:06;;;;;;;6;5.2;;;;;;;15.43;77.20898;961.1472;;;;
2019/06/14 03:59:31;;;;;;;7.4;5.5;;;;;;;15.38;77.68945;961.1646;;;;
